createdAt,value
2023-03-10T00:00:33.067Z,0.00
2023-03-10T00:01:33.053Z,0.00
2023-03-10T00:02:33.060Z,0.00
2023-03-10T00:03:33.028Z,0.00
2023-03-10T00:04:33.064Z,0.00
2023-03-10T00:05:33.066Z,0.00
2023-03-10T00:06:33.035Z,0.00
2023-03-10T00:07:32.996Z,0.00
2023-03-10T00:08:32.984Z,0.00
2023-03-10T00:09:32.972Z,0.00
2023-03-10T00:10:32.973Z,0.00
2023-03-10T00:11:32.976Z,0.00
2023-03-10T00:12:32.942Z,0.00
2023-03-10T00:13:32.927Z,0.00
2023-03-10T00:14:32.930Z,0.00
2023-03-10T00:15:32.978Z,0.00
2023-03-10T00:16:32.957Z,0.00
2023-03-10T00:17:32.908Z,0.00
2023-03-10T00:18:32.890Z,0.00
2023-03-10T00:19:32.872Z,0.00
2023-03-10T00:20:32.850Z,0.00
2023-03-10T00:21:33.877Z,0.00
2023-03-10T00:22:32.845Z,0.00
2023-03-10T00:23:32.850Z,0.00
2023-03-10T00:24:32.831Z,0.00
2023-03-10T00:25:32.810Z,0.00
2023-03-10T00:26:32.798Z,0.00
2023-03-10T00:27:32.789Z,0.00
2023-03-10T00:28:32.826Z,0.00
2023-03-10T00:29:32.864Z,0.00
2023-03-10T00:30:33.052Z,0.00
2023-03-10T00:31:32.776Z,0.00
2023-03-10T00:32:32.816Z,0.00
2023-03-10T00:33:32.753Z,0.00
2023-03-10T00:34:32.760Z,0.00
2023-03-10T00:35:32.785Z,0.00
2023-03-10T00:36:32.702Z,0.00
2023-03-10T00:37:32.701Z,0.00
2023-03-10T00:38:32.685Z,0.00
2023-03-10T00:39:32.741Z,0.00
2023-03-10T00:40:32.675Z,0.00
2023-03-10T00:41:32.679Z,0.00
2023-03-10T00:42:32.649Z,0.00
2023-03-10T00:43:32.642Z,0.00
2023-03-10T00:44:32.644Z,0.00
2023-03-10T00:45:32.652Z,0.00
2023-03-10T00:46:32.669Z,0.00
2023-03-10T00:47:32.602Z,0.00
2023-03-10T00:48:32.603Z,0.00
2023-03-10T00:49:32.577Z,0.00
2023-03-10T00:50:32.598Z,0.00
2023-03-10T00:51:32.553Z,0.00
2023-03-10T00:52:32.572Z,0.00
2023-03-10T00:53:32.542Z,0.00
2023-03-10T00:54:32.518Z,0.00
2023-03-10T00:55:32.519Z,0.00
2023-03-10T00:56:32.510Z,0.00
2023-03-10T00:57:32.528Z,0.00
2023-03-10T00:58:32.487Z,0.00
2023-03-10T00:59:47.798Z,0.00
2023-03-10T01:00:34.486Z,0.00
2023-03-10T01:01:32.626Z,0.00
2023-03-10T01:02:32.452Z,0.00
2023-03-10T01:03:32.464Z,0.00
2023-03-10T01:04:32.479Z,0.00
2023-03-10T01:05:32.441Z,0.00
2023-03-10T01:06:32.408Z,0.00
2023-03-10T01:07:32.427Z,0.00
2023-03-10T01:08:32.398Z,0.00
2023-03-10T01:09:32.397Z,0.00
2023-03-10T01:10:32.371Z,0.00
2023-03-10T01:11:32.367Z,0.00
2023-03-10T01:12:32.352Z,0.00
2023-03-10T01:13:32.381Z,0.00
2023-03-10T01:14:32.384Z,0.00
2023-03-10T01:15:32.330Z,0.00
2023-03-10T01:16:32.367Z,0.00
2023-03-10T01:17:32.303Z,0.00
2023-03-10T01:18:32.297Z,0.00
2023-03-10T01:19:32.286Z,0.00
2023-03-10T01:20:32.295Z,0.00
2023-03-10T01:21:32.284Z,0.00
2023-03-10T01:22:32.256Z,0.00
2023-03-10T01:23:32.248Z,0.00
2023-03-10T01:24:32.229Z,0.00
2023-03-10T01:25:32.224Z,0.00
2023-03-10T01:26:32.235Z,0.00
2023-03-10T01:27:32.232Z,0.00
2023-03-10T01:28:32.202Z,0.00
2023-03-10T01:29:32.191Z,0.00
2023-03-10T01:30:32.183Z,0.00
2023-03-10T01:32:04.099Z,0.00
2023-03-10T01:32:32.219Z,0.00
2023-03-10T01:33:32.156Z,0.00
2023-03-10T01:34:32.134Z,0.00
2023-03-10T01:35:32.252Z,0.00
2023-03-10T01:36:32.108Z,0.00
2023-03-10T01:37:32.130Z,0.00
2023-03-10T01:38:32.093Z,0.00
2023-03-10T01:39:32.088Z,0.00
2023-03-10T01:40:32.074Z,0.00
2023-03-10T01:41:32.059Z,0.00
2023-03-10T01:42:32.072Z,0.00
2023-03-10T01:43:32.059Z,0.00
2023-03-10T01:44:32.031Z,0.00
2023-03-10T01:45:32.048Z,0.00
2023-03-10T01:46:32.118Z,0.00
2023-03-10T01:47:32.030Z,0.00
2023-03-10T01:48:32.012Z,0.00
2023-03-10T01:49:31.998Z,0.00
2023-03-10T01:50:31.986Z,0.00
2023-03-10T01:51:31.974Z,0.00
2023-03-10T01:52:31.965Z,0.00
2023-03-10T01:53:31.935Z,0.00
2023-03-10T01:54:31.955Z,0.00
2023-03-10T01:55:31.938Z,0.00
2023-03-10T01:56:31.917Z,0.00
2023-03-10T01:57:31.910Z,0.00
2023-03-10T01:58:31.920Z,0.00
2023-03-10T01:59:31.884Z,0.00
2023-03-10T02:00:31.918Z,0.00
2023-03-10T02:01:31.869Z,0.00
2023-03-10T02:02:31.854Z,0.00
2023-03-10T02:03:31.881Z,0.00
2023-03-10T02:04:31.843Z,0.00
2023-03-10T02:05:31.829Z,0.00
2023-03-10T02:06:31.828Z,0.00
2023-03-10T02:07:31.808Z,0.00
2023-03-10T02:08:31.822Z,0.00
2023-03-10T02:09:31.808Z,0.00
2023-03-10T02:10:31.781Z,0.00
2023-03-10T02:11:31.770Z,0.00
2023-03-10T02:12:31.759Z,0.00
2023-03-10T02:13:31.762Z,0.00
2023-03-10T02:14:31.754Z,0.00
2023-03-10T02:15:31.737Z,0.00
2023-03-10T02:16:31.817Z,0.00
2023-03-10T02:17:31.733Z,0.00
2023-03-10T02:18:31.722Z,0.00
2023-03-10T02:19:31.696Z,0.00
2023-03-10T02:20:31.708Z,0.00
2023-03-10T02:21:31.687Z,0.00
2023-03-10T02:22:31.675Z,0.00
2023-03-10T02:23:31.670Z,0.00
2023-03-10T02:24:31.651Z,0.00
2023-03-10T02:25:31.655Z,0.00
2023-03-10T02:26:31.642Z,0.00
2023-03-10T02:27:31.643Z,0.00
2023-03-10T02:28:32.606Z,0.00
2023-03-10T02:29:31.624Z,0.00
2023-03-10T02:30:31.590Z,0.00
2023-03-10T02:31:31.684Z,0.00
2023-03-10T02:32:31.604Z,0.00
2023-03-10T02:33:31.596Z,0.00
2023-03-10T02:34:31.580Z,0.00
2023-03-10T02:35:31.621Z,0.00
2023-03-10T02:36:31.544Z,0.00
2023-03-10T02:37:31.529Z,0.00
2023-03-10T02:38:31.517Z,0.00
2023-03-10T02:39:31.504Z,0.00
2023-03-10T02:40:31.492Z,0.00
2023-03-10T02:41:31.502Z,0.00
2023-03-10T02:42:31.476Z,0.00
2023-03-10T02:43:31.460Z,0.00
2023-03-10T02:44:31.458Z,0.00
2023-03-10T02:45:31.480Z,0.00
2023-03-10T02:46:31.430Z,0.00
2023-03-10T02:47:31.456Z,0.00
2023-03-10T02:48:31.407Z,0.00
2023-03-10T02:49:31.395Z,0.00
2023-03-10T02:50:31.430Z,0.00
2023-03-10T02:51:31.377Z,0.00
2023-03-10T02:52:31.366Z,0.00
2023-03-10T02:53:31.360Z,0.00
2023-03-10T02:54:31.381Z,0.00
2023-03-10T02:55:31.346Z,0.00
2023-03-10T02:56:31.335Z,0.00
2023-03-10T02:57:31.323Z,0.00
2023-03-10T02:58:31.311Z,0.00
2023-03-10T02:59:31.318Z,0.00
2023-03-10T03:00:31.293Z,0.00
2023-03-10T03:01:31.382Z,0.00
2023-03-10T03:02:31.290Z,0.00
2023-03-10T03:03:31.285Z,0.00
2023-03-10T03:04:31.247Z,0.00
2023-03-10T03:05:31.240Z,0.00
2023-03-10T03:06:31.235Z,0.00
2023-03-10T03:07:31.273Z,0.00
2023-03-10T03:08:31.213Z,0.00
2023-03-10T03:09:31.199Z,0.00
2023-03-10T03:10:31.209Z,0.00
2023-03-10T03:11:31.182Z,0.00
2023-03-10T03:12:31.310Z,0.00
2023-03-10T03:13:31.177Z,0.00
2023-03-10T03:14:31.146Z,0.00
2023-03-10T03:15:31.148Z,0.00
2023-03-10T03:16:31.164Z,0.00
2023-03-10T03:17:31.122Z,0.00
2023-03-10T03:18:31.139Z,0.00
2023-03-10T03:19:31.103Z,0.00
2023-03-10T03:20:31.087Z,0.00
2023-03-10T03:21:31.095Z,0.00
2023-03-10T03:22:31.065Z,0.00
2023-03-10T03:23:31.058Z,0.00
2023-03-10T03:24:31.074Z,0.00
2023-03-10T03:25:31.038Z,0.00
2023-03-10T03:26:31.032Z,0.00
2023-03-10T03:27:31.018Z,0.00
2023-03-10T03:28:31.021Z,0.00
2023-03-10T03:29:31.041Z,0.00
2023-03-10T03:30:31.003Z,0.00
2023-03-10T03:31:31.022Z,0.00
2023-03-10T03:32:30.995Z,0.00
2023-03-10T03:33:30.962Z,0.00
2023-03-10T03:34:30.950Z,0.00
2023-03-10T03:35:32.010Z,0.00
2023-03-10T03:36:30.929Z,0.00
2023-03-10T03:37:30.931Z,0.00
2023-03-10T03:38:30.918Z,0.00
2023-03-10T03:39:30.946Z,0.00
2023-03-10T03:40:30.893Z,0.00
2023-03-10T03:41:30.879Z,0.00
2023-03-10T03:42:30.882Z,0.00
2023-03-10T03:43:30.870Z,0.00
2023-03-10T03:44:30.858Z,0.00
2023-03-10T03:45:30.845Z,0.00
2023-03-10T03:46:30.906Z,0.00
2023-03-10T03:47:30.850Z,0.00
2023-03-10T03:48:30.826Z,0.00
2023-03-10T03:49:30.802Z,0.00
2023-03-10T03:50:30.787Z,0.00
2023-03-10T03:51:30.813Z,0.00
2023-03-10T03:52:30.791Z,0.00
2023-03-10T03:53:30.794Z,0.00
2023-03-10T03:54:30.749Z,0.00
2023-03-10T03:55:30.764Z,0.00
2023-03-10T03:56:30.730Z,0.00
2023-03-10T03:57:30.728Z,0.00
2023-03-10T03:58:30.801Z,0.00
2023-03-10T03:59:30.703Z,0.00
2023-03-10T04:00:30.712Z,0.00
2023-03-10T04:01:30.683Z,0.00
2023-03-10T04:02:30.739Z,0.00
2023-03-10T04:03:30.728Z,0.00
2023-03-10T04:04:30.649Z,0.00
2023-03-10T04:05:30.659Z,0.00
2023-03-10T04:06:30.636Z,0.00
2023-03-10T04:07:30.620Z,0.00
2023-03-10T04:08:30.627Z,0.00
2023-03-10T04:09:30.604Z,0.00
2023-03-10T04:10:30.623Z,0.00
2023-03-10T04:11:30.582Z,0.00
2023-03-10T04:12:30.577Z,0.00
2023-03-10T04:13:30.570Z,0.00
2023-03-10T04:14:30.562Z,0.00
2023-03-10T04:15:30.600Z,0.00
2023-03-10T04:16:30.555Z,0.00
2023-03-10T04:17:30.527Z,0.00
2023-03-10T04:18:30.525Z,0.00
2023-03-10T04:19:30.510Z,0.00
2023-03-10T04:20:30.517Z,0.00
2023-03-10T04:21:30.483Z,0.00
2023-03-10T04:22:30.476Z,0.00
2023-03-10T04:23:30.483Z,0.00
2023-03-10T04:24:30.470Z,0.00
2023-03-10T04:25:30.485Z,0.00
2023-03-10T04:26:30.432Z,0.00
2023-03-10T04:27:30.424Z,0.00
2023-03-10T04:28:30.428Z,0.00
2023-03-10T04:29:30.399Z,0.00
2023-03-10T04:30:30.406Z,0.00
2023-03-10T04:31:30.464Z,0.00
2023-03-10T04:32:30.523Z,0.00
2023-03-10T04:33:30.391Z,0.00
2023-03-10T04:34:30.365Z,0.00
2023-03-10T04:35:30.362Z,0.00
2023-03-10T04:36:30.344Z,0.00
2023-03-10T04:37:30.353Z,0.00
2023-03-10T04:38:30.313Z,0.00
2023-03-10T04:39:30.317Z,0.00
2023-03-10T04:40:30.294Z,0.00
2023-03-10T04:41:30.313Z,0.00
2023-03-10T04:42:30.307Z,0.00
2023-03-10T04:43:30.290Z,0.00
2023-03-10T04:44:31.630Z,0.00
2023-03-10T04:45:31.261Z,0.00
2023-03-10T04:46:30.247Z,0.00
2023-03-10T04:47:30.272Z,0.00
2023-03-10T04:48:30.248Z,0.00
2023-03-10T04:49:30.214Z,0.00
2023-03-10T04:50:30.197Z,0.00
2023-03-10T04:51:30.186Z,0.00
2023-03-10T04:52:30.211Z,0.00
2023-03-10T04:53:30.162Z,0.00
2023-03-10T04:54:30.149Z,0.00
2023-03-10T04:55:30.161Z,0.00
2023-03-10T04:56:30.141Z,0.00
2023-03-10T04:57:30.169Z,0.00
2023-03-10T04:58:30.145Z,0.00
2023-03-10T04:59:30.116Z,0.00
2023-03-10T05:00:30.144Z,0.00
2023-03-10T05:01:30.117Z,0.00
2023-03-10T05:02:30.071Z,0.00
2023-03-10T05:03:30.091Z,0.00
2023-03-10T05:04:30.127Z,0.00
2023-03-10T05:05:30.051Z,0.00
2023-03-10T05:06:31.035Z,0.00
2023-03-10T05:07:30.022Z,0.00
2023-03-10T05:08:30.007Z,0.00
2023-03-10T05:09:29.998Z,0.00
2023-03-10T05:10:30.002Z,0.00
2023-03-10T05:11:30.000Z,0.00
2023-03-10T05:12:29.989Z,0.00
2023-03-10T05:13:31.810Z,0.00
2023-03-10T05:14:30.982Z,0.00
2023-03-10T05:15:29.952Z,0.00
2023-03-10T05:16:29.962Z,0.00
2023-03-10T05:17:29.929Z,0.00
2023-03-10T05:18:29.918Z,0.00
2023-03-10T05:19:29.932Z,0.00
2023-03-10T05:20:29.896Z,0.00
2023-03-10T05:21:29.909Z,0.00
2023-03-10T05:22:29.879Z,0.00
2023-03-10T05:23:29.863Z,0.00
2023-03-10T05:24:29.848Z,0.00
2023-03-10T05:25:29.849Z,4.00
2023-03-10T05:26:29.860Z,4.00
2023-03-10T05:27:29.848Z,0.00
2023-03-10T05:28:29.809Z,4.00
2023-03-10T05:29:30.829Z,8.00
2023-03-10T05:30:29.812Z,4.00
2023-03-10T05:31:29.869Z,4.00
2023-03-10T05:32:29.811Z,4.00
2023-03-10T05:33:31.492Z,8.00
2023-03-10T05:34:30.781Z,8.00
2023-03-10T05:35:29.771Z,8.00
2023-03-10T05:36:29.741Z,8.00
2023-03-10T05:37:29.731Z,12.00
2023-03-10T05:38:29.716Z,16.00
2023-03-10T05:39:29.726Z,24.00
2023-03-10T05:40:29.714Z,24.00
2023-03-10T05:41:30.700Z,32.00
2023-03-10T05:42:29.684Z,32.00
2023-03-10T05:43:29.673Z,32.00
2023-03-10T05:44:29.664Z,32.00
2023-03-10T05:45:29.654Z,40.00
2023-03-10T05:46:29.720Z,44.00
2023-03-10T05:47:29.633Z,44.00
2023-03-10T05:48:29.630Z,48.00
2023-03-10T05:49:29.629Z,60.00
2023-03-10T05:50:29.647Z,68.00
2023-03-10T05:51:29.598Z,72.00
2023-03-10T05:52:29.604Z,72.00
2023-03-10T05:53:29.578Z,68.00
2023-03-10T05:54:29.599Z,68.00
2023-03-10T05:55:29.561Z,68.00
2023-03-10T05:56:29.554Z,76.00
2023-03-10T05:57:29.570Z,76.00
2023-03-10T05:58:29.535Z,72.00
2023-03-10T05:59:29.537Z,76.00
2023-03-10T06:00:29.516Z,64.00
2023-03-10T06:01:29.509Z,68.00
2023-03-10T06:02:29.519Z,72.00
2023-03-10T06:03:29.601Z,84.00
2023-03-10T06:04:29.547Z,100.00
2023-03-10T06:05:29.461Z,100.00
2023-03-10T06:06:29.450Z,108.00
2023-03-10T06:07:29.438Z,108.00
2023-03-10T06:08:29.460Z,108.00
2023-03-10T06:09:29.437Z,96.00
2023-03-10T06:10:29.433Z,112.00
2023-03-10T06:11:29.441Z,124.00
2023-03-10T06:12:29.384Z,116.00
2023-03-10T06:13:29.384Z,120.00
2023-03-10T06:14:29.377Z,116.00
2023-03-10T06:15:29.358Z,120.00
2023-03-10T06:16:29.424Z,124.00
2023-03-10T06:17:29.355Z,128.00
2023-03-10T06:18:29.353Z,152.00
2023-03-10T06:19:29.336Z,188.00
2023-03-10T06:20:29.324Z,220.00
2023-03-10T06:21:29.380Z,220.00
2023-03-10T06:22:31.247Z,228.00
2023-03-10T06:23:30.291Z,228.00
2023-03-10T06:24:29.271Z,236.00
2023-03-10T06:25:29.283Z,236.00
2023-03-10T06:26:29.250Z,248.00
2023-03-10T06:27:29.252Z,260.00
2023-03-10T06:28:29.227Z,236.00
2023-03-10T06:29:29.220Z,224.00
2023-03-10T06:30:29.229Z,228.00
2023-03-10T06:31:29.330Z,260.00
2023-03-10T06:32:29.272Z,248.00
2023-03-10T06:33:29.228Z,268.00
2023-03-10T06:34:29.189Z,312.00
2023-03-10T06:35:29.161Z,384.00
2023-03-10T06:36:29.155Z,416.00
2023-03-10T06:37:29.155Z,420.00
2023-03-10T06:38:29.165Z,444.00
2023-03-10T06:39:29.153Z,560.00
2023-03-10T06:40:29.117Z,688.00
2023-03-10T06:41:29.115Z,820.00
2023-03-10T06:42:29.141Z,916.00
2023-03-10T06:43:29.110Z,924.00
2023-03-10T06:44:29.124Z,964.00
2023-03-10T06:45:29.069Z,1004.00
2023-03-10T06:46:29.082Z,1072.00
2023-03-10T06:47:29.048Z,1084.00
2023-03-10T06:48:29.052Z,1096.00
2023-03-10T06:49:29.047Z,1132.00
2023-03-10T06:50:31.486Z,1176.00
2023-03-10T06:51:30.018Z,1208.00
2023-03-10T06:52:29.020Z,1292.00
2023-03-10T06:53:29.006Z,1324.00
2023-03-10T06:54:29.003Z,1420.00
2023-03-10T06:55:28.974Z,1488.00
2023-03-10T06:56:28.961Z,1548.00
2023-03-10T06:57:28.974Z,1460.00
2023-03-10T06:58:28.958Z,1412.00
2023-03-10T06:59:28.935Z,1336.00
2023-03-10T07:00:28.958Z,1292.00
2023-03-10T07:01:29.022Z,1300.00
2023-03-10T07:02:28.910Z,1348.00
2023-03-10T07:03:28.919Z,1484.00
2023-03-10T07:04:28.923Z,1736.00
2023-03-10T07:05:28.891Z,2104.00
2023-03-10T07:06:28.861Z,2888.00
2023-03-10T07:07:28.878Z,20256.00
2023-03-10T07:08:28.849Z,23168.00
2023-03-10T07:09:28.831Z,14008.00
2023-03-10T07:10:28.850Z,13240.00
2023-03-10T07:11:28.827Z,42112.00
2023-03-10T07:12:28.816Z,31392.00
2023-03-10T07:13:28.797Z,6180.00
2023-03-10T07:14:28.776Z,4676.00
2023-03-10T07:15:28.774Z,4080.00
2023-03-10T07:16:28.805Z,4044.00
2023-03-10T07:17:28.764Z,3620.00
2023-03-10T07:18:28.734Z,3444.00
2023-03-10T07:19:28.759Z,3276.00
2023-03-10T07:20:28.736Z,3072.00
2023-03-10T07:21:28.721Z,2856.00
2023-03-10T07:22:28.697Z,2712.00
2023-03-10T07:23:28.692Z,2944.00
2023-03-10T07:24:28.706Z,3284.00
2023-03-10T07:25:28.673Z,3864.00
2023-03-10T07:26:28.672Z,3420.00
2023-03-10T07:27:28.670Z,3584.00
2023-03-10T07:28:28.641Z,3852.00
2023-03-10T07:29:28.658Z,4052.00
2023-03-10T07:30:28.635Z,4292.00
2023-03-10T07:31:28.647Z,4848.00
2023-03-10T07:33:00.513Z,5740.00
2023-03-10T07:33:28.607Z,6176.00
2023-03-10T07:34:28.580Z,6692.00
2023-03-10T07:35:28.625Z,6928.00
2023-03-10T07:36:28.566Z,7188.00
2023-03-10T07:37:28.549Z,7088.00
2023-03-10T07:38:28.554Z,6324.00
2023-03-10T07:39:28.535Z,5216.00
2023-03-10T07:40:29.536Z,4848.00
2023-03-10T07:41:29.521Z,4792.00
2023-03-10T07:42:28.504Z,5508.00
2023-03-10T07:43:28.515Z,5392.00
2023-03-10T07:44:28.506Z,5252.00
2023-03-10T07:45:28.469Z,5292.00
2023-03-10T07:46:28.577Z,5176.00
2023-03-10T07:47:28.462Z,5512.00
2023-03-10T07:48:28.456Z,6424.00
2023-03-10T07:49:29.449Z,5964.00
2023-03-10T07:50:28.461Z,5548.00
2023-03-10T07:51:28.458Z,5764.00
2023-03-10T07:52:28.421Z,6352.00
2023-03-10T07:53:28.399Z,6240.00
2023-03-10T07:54:28.416Z,6380.00
2023-03-10T07:55:28.386Z,7344.00
2023-03-10T07:56:28.378Z,8364.00
2023-03-10T07:57:28.362Z,16096.00
2023-03-10T07:58:28.381Z,13200.00
2023-03-10T07:59:28.343Z,13864.00
2023-03-10T08:00:28.392Z,16384.00
2023-03-10T08:01:28.324Z,17120.00
2023-03-10T08:02:28.332Z,15080.00
2023-03-10T08:03:28.372Z,17504.00
2023-03-10T08:04:28.457Z,13068.00
2023-03-10T08:05:28.282Z,10528.00
2023-03-10T08:06:28.311Z,10268.00
2023-03-10T08:07:28.258Z,11056.00
2023-03-10T08:08:28.275Z,7784.00
2023-03-10T08:09:28.287Z,7168.00
2023-03-10T08:10:28.233Z,7136.00
2023-03-10T08:11:28.224Z,7860.00
2023-03-10T08:12:28.226Z,8496.00
2023-03-10T08:13:28.235Z,7292.00
2023-03-10T08:14:28.227Z,6232.00
2023-03-10T08:15:28.188Z,5432.00
2023-03-10T08:16:28.276Z,5472.00
2023-03-10T08:17:28.163Z,5504.00
2023-03-10T08:18:28.150Z,5888.00
2023-03-10T08:19:28.164Z,6384.00
2023-03-10T08:20:28.143Z,6408.00
2023-03-10T08:21:28.129Z,6340.00
2023-03-10T08:22:28.144Z,6060.00
2023-03-10T08:23:28.130Z,6248.00
2023-03-10T08:24:28.099Z,6332.00
2023-03-10T08:25:28.084Z,6184.00
2023-03-10T08:26:28.076Z,6424.00
2023-03-10T08:27:29.224Z,5740.00
2023-03-10T08:28:28.073Z,5632.00
2023-03-10T08:29:28.040Z,5224.00
2023-03-10T08:30:28.035Z,4684.00
2023-03-10T08:31:28.095Z,4392.00
2023-03-10T08:32:28.055Z,4136.00
2023-03-10T08:33:28.011Z,4504.00
2023-03-10T08:34:27.999Z,4704.00
2023-03-10T08:35:27.979Z,4884.00
2023-03-10T08:36:27.987Z,4676.00
2023-03-10T08:37:27.972Z,4524.00
2023-03-10T08:38:27.955Z,4400.00
2023-03-10T08:39:27.946Z,3940.00
2023-03-10T08:40:27.956Z,4112.00
2023-03-10T08:41:27.931Z,4352.00
2023-03-10T08:42:27.915Z,4584.00
2023-03-10T08:43:27.909Z,5132.00
2023-03-10T08:44:27.895Z,5436.00
2023-03-10T08:45:27.913Z,5980.00
2023-03-10T08:46:27.907Z,6204.00
2023-03-10T08:47:30.434Z,5504.00
2023-03-10T08:48:28.865Z,4844.00
2023-03-10T08:49:27.854Z,4508.00
2023-03-10T08:50:27.851Z,4912.00
2023-03-10T08:51:27.847Z,5440.00
2023-03-10T08:52:27.845Z,5732.00
2023-03-10T08:53:27.818Z,5044.00
2023-03-10T08:54:27.799Z,4728.00
2023-03-10T08:55:27.796Z,4828.00
2023-03-10T08:56:27.787Z,4628.00
2023-03-10T08:57:27.797Z,4756.00
2023-03-10T08:58:27.782Z,5224.00
2023-03-10T08:59:27.784Z,5308.00
2023-03-10T09:00:27.742Z,5784.00
2023-03-10T09:01:27.733Z,6436.00
2023-03-10T09:02:27.757Z,6560.00
2023-03-10T09:03:30.302Z,5612.00
2023-03-10T09:04:27.752Z,5660.00
2023-03-10T09:05:27.694Z,5544.00
2023-03-10T09:06:27.683Z,5544.00
2023-03-10T09:07:27.714Z,6100.00
2023-03-10T09:08:27.961Z,6336.00
2023-03-10T09:09:28.693Z,6320.00
2023-03-10T09:10:27.640Z,7084.00
2023-03-10T09:11:27.676Z,7732.00
2023-03-10T09:12:33.533Z,7708.00
2023-03-10T09:13:29.618Z,8624.00
2023-03-10T09:14:27.621Z,11072.00
2023-03-10T09:15:27.618Z,12608.00
2023-03-10T09:16:27.618Z,13716.00
2023-03-10T09:17:27.606Z,11940.00
2023-03-10T09:18:27.573Z,10880.00
2023-03-10T09:19:27.567Z,10840.00
2023-03-10T09:20:29.396Z,10720.00
2023-03-10T09:21:29.427Z,10324.00
2023-03-10T09:22:27.554Z,10056.00
2023-03-10T09:23:27.526Z,9132.00
2023-03-10T09:24:27.535Z,9148.00
2023-03-10T09:25:27.500Z,8356.00
2023-03-10T09:26:27.486Z,7600.00
2023-03-10T09:27:27.481Z,7296.00
2023-03-10T09:28:27.510Z,6544.00
2023-03-10T09:29:42.022Z,5520.00
2023-03-10T09:30:29.448Z,4840.00
2023-03-10T09:31:27.460Z,4588.00
2023-03-10T09:32:27.481Z,5056.00
2023-03-10T09:33:27.447Z,4720.00
2023-03-10T09:34:27.411Z,4288.00
2023-03-10T09:35:27.464Z,4528.00
2023-03-10T09:36:27.544Z,4648.00
2023-03-10T09:37:27.404Z,4784.00
2023-03-10T09:38:27.378Z,5488.00
2023-03-10T09:39:27.379Z,6652.00
2023-03-10T09:40:27.352Z,6452.00
2023-03-10T09:41:27.373Z,6036.00
2023-03-10T09:42:37.273Z,6684.00
2023-03-10T09:43:28.329Z,7648.00
2023-03-10T09:44:27.324Z,9656.00
2023-03-10T09:45:27.417Z,9892.00
2023-03-10T09:46:27.300Z,9484.00
2023-03-10T09:47:27.285Z,9380.00
2023-03-10T09:48:27.299Z,8724.00
2023-03-10T09:49:27.255Z,8340.00
2023-03-10T09:50:27.278Z,8500.00
2023-03-10T09:51:27.264Z,8316.00
2023-03-10T09:52:27.260Z,7800.00
2023-03-10T09:53:27.255Z,7560.00
2023-03-10T09:54:27.238Z,7276.00
2023-03-10T09:55:27.212Z,6776.00
2023-03-10T09:56:29.680Z,6620.00
2023-03-10T09:57:27.198Z,6896.00
2023-03-10T09:58:27.182Z,7636.00
2023-03-10T09:59:27.185Z,8108.00
2023-03-10T10:00:27.173Z,7888.00
2023-03-10T10:01:27.156Z,7380.00
2023-03-10T10:02:27.134Z,6620.00
2023-03-10T10:03:27.165Z,5968.00
2023-03-10T10:04:27.192Z,5936.00
2023-03-10T10:05:27.132Z,5724.00
2023-03-10T10:06:28.644Z,5308.00
2023-03-10T10:07:27.098Z,4724.00
2023-03-10T10:08:28.868Z,4292.00
2023-03-10T10:09:27.076Z,3748.00
2023-03-10T10:10:27.092Z,3408.00
2023-03-10T10:11:27.048Z,3124.00
2023-03-10T10:12:27.066Z,3636.00
2023-03-10T10:13:27.039Z,4436.00
2023-03-10T10:14:30.574Z,5256.00
2023-03-10T10:15:28.013Z,6528.00
2023-03-10T10:16:34.247Z,7068.00
2023-03-10T10:17:29.084Z,7952.00
2023-03-10T10:18:27.151Z,8604.00
2023-03-10T10:19:26.992Z,8648.00
2023-03-10T10:20:26.965Z,8152.00
2023-03-10T10:21:33.578Z,7400.00
2023-03-10T10:22:27.959Z,7044.00
2023-03-10T10:23:26.928Z,6692.00
2023-03-10T10:24:26.923Z,6444.00
2023-03-10T10:25:26.931Z,7368.00
2023-03-10T10:26:26.904Z,8696.00
2023-03-10T10:27:26.914Z,11732.00
2023-03-10T10:28:26.890Z,10664.00
2023-03-10T10:29:26.896Z,13012.00
2023-03-10T10:30:27.473Z,10820.00
2023-03-10T10:31:27.938Z,11188.00
2023-03-10T10:32:26.868Z,11768.00
2023-03-10T10:33:26.856Z,12124.00
2023-03-10T10:34:26.840Z,14456.00
2023-03-10T10:35:26.845Z,12836.00
2023-03-10T10:36:26.817Z,11944.00
2023-03-10T10:37:26.806Z,15408.00
2023-03-10T10:38:26.803Z,16384.00
2023-03-10T10:39:28.108Z,16224.00
2023-03-10T10:40:26.770Z,15160.00
2023-03-10T10:41:26.793Z,15100.00
2023-03-10T10:42:26.751Z,14872.00
2023-03-10T10:43:26.764Z,14228.00
2023-03-10T10:44:26.743Z,13884.00
2023-03-10T10:45:26.715Z,13252.00
2023-03-10T10:46:26.762Z,15196.00
2023-03-10T10:47:26.722Z,15576.00
2023-03-10T10:48:26.696Z,14336.00
2023-03-10T10:49:26.699Z,13984.00
2023-03-10T10:50:26.688Z,13896.00
2023-03-10T10:51:26.688Z,11684.00
2023-03-10T10:52:26.691Z,10696.00
2023-03-10T10:53:26.644Z,10524.00
2023-03-10T10:54:26.638Z,11296.00
2023-03-10T10:55:26.638Z,11080.00
2023-03-10T10:56:26.600Z,9832.00
2023-03-10T10:57:27.624Z,11120.00
2023-03-10T10:58:26.630Z,10052.00
2023-03-10T10:59:26.580Z,10984.00
2023-03-10T11:00:26.577Z,13184.00
2023-03-10T11:01:26.600Z,10824.00
2023-03-10T11:02:26.585Z,12776.00
2023-03-10T11:03:26.550Z,10848.00
2023-03-10T11:04:26.569Z,12216.00
2023-03-10T11:05:26.524Z,12284.00
2023-03-10T11:06:26.538Z,10644.00
2023-03-10T11:07:26.509Z,9900.00
2023-03-10T11:08:26.489Z,11956.00
2023-03-10T11:09:26.500Z,10796.00
2023-03-10T11:10:26.502Z,13144.00
2023-03-10T11:11:26.483Z,13412.00
2023-03-10T11:12:26.464Z,13112.00
2023-03-10T11:13:26.447Z,12812.00
2023-03-10T11:14:26.441Z,12668.00
2023-03-10T11:15:26.551Z,11624.00
2023-03-10T11:16:26.413Z,10436.00
2023-03-10T11:17:26.427Z,12644.00
2023-03-10T11:18:26.418Z,10984.00
2023-03-10T11:19:26.403Z,8620.00
2023-03-10T11:20:26.411Z,9424.00
2023-03-10T11:21:26.363Z,11548.00
2023-03-10T11:22:26.355Z,12088.00
2023-03-10T11:23:26.341Z,11820.00
2023-03-10T11:24:26.339Z,13140.00
2023-03-10T11:25:26.352Z,11904.00
2023-03-10T11:26:26.323Z,11664.00
2023-03-10T11:27:26.304Z,11788.00
2023-03-10T11:28:26.292Z,11460.00
2023-03-10T11:29:26.389Z,10292.00
2023-03-10T11:30:26.290Z,9268.00
2023-03-10T11:31:26.394Z,8804.00
2023-03-10T11:32:26.280Z,9144.00
2023-03-10T11:33:26.295Z,12908.00
2023-03-10T11:34:26.229Z,16288.00
2023-03-10T11:35:26.227Z,16512.00
2023-03-10T11:36:26.220Z,15060.00
2023-03-10T11:37:26.227Z,13568.00
2023-03-10T11:38:26.193Z,10360.00
2023-03-10T11:39:26.189Z,9804.00
2023-03-10T11:40:26.175Z,10528.00
2023-03-10T11:41:26.171Z,13328.00
2023-03-10T11:42:26.332Z,10988.00
2023-03-10T11:43:27.155Z,9148.00
2023-03-10T11:44:26.165Z,11576.00
2023-03-10T11:45:26.126Z,11452.00
2023-03-10T11:46:26.199Z,11548.00
2023-03-10T11:47:26.106Z,11796.00
2023-03-10T11:48:26.129Z,11900.00
2023-03-10T11:49:26.100Z,11660.00
2023-03-10T11:50:26.091Z,11588.00
2023-03-10T11:51:26.071Z,11776.00
2023-03-10T11:52:26.066Z,12432.00
2023-03-10T11:53:26.041Z,12808.00
2023-03-10T11:54:27.036Z,11916.00
2023-03-10T11:55:26.022Z,12856.00
2023-03-10T11:56:26.022Z,13036.00
2023-03-10T11:57:26.012Z,12632.00
2023-03-10T11:58:25.993Z,8920.00
2023-03-10T11:59:26.002Z,8580.00
2023-03-10T12:00:26.198Z,8800.00
2023-03-10T12:01:26.985Z,8904.00
2023-03-10T12:02:25.952Z,8448.00
2023-03-10T12:03:26.006Z,8336.00
2023-03-10T12:04:25.945Z,8424.00
2023-03-10T12:05:25.967Z,8616.00
2023-03-10T12:06:26.777Z,8284.00
2023-03-10T12:07:25.919Z,7672.00
2023-03-10T12:08:25.898Z,7552.00
2023-03-10T12:09:25.869Z,7164.00
2023-03-10T12:10:25.867Z,7400.00
2023-03-10T12:11:25.872Z,7700.00
2023-03-10T12:12:26.229Z,7948.00
2023-03-10T12:13:26.849Z,8684.00
2023-03-10T12:14:25.827Z,8940.00
2023-03-10T12:15:25.822Z,8528.00
2023-03-10T12:16:25.865Z,8812.00
2023-03-10T12:17:25.834Z,8792.00
2023-03-10T12:18:27.016Z,8460.00
2023-03-10T12:19:26.782Z,7880.00
2023-03-10T12:20:25.772Z,7576.00
2023-03-10T12:21:25.799Z,7396.00
2023-03-10T12:22:25.749Z,7272.00
2023-03-10T12:23:25.732Z,7272.00
2023-03-10T12:24:25.744Z,7288.00
2023-03-10T12:25:25.731Z,7496.00
2023-03-10T12:26:25.708Z,8388.00
2023-03-10T12:27:25.698Z,9268.00
2023-03-10T12:28:25.694Z,10692.00
2023-03-10T12:29:25.676Z,11464.00
2023-03-10T12:30:26.018Z,11732.00
2023-03-10T12:31:26.736Z,11020.00
2023-03-10T12:32:25.706Z,10436.00
2023-03-10T12:33:25.642Z,11624.00
2023-03-10T12:34:25.635Z,9088.00
2023-03-10T12:35:25.630Z,8580.00